createdAt,value
2022-08-01T00:00:48.702Z,11.80
2022-08-01T00:03:16.509Z,10.57
2022-08-01T00:05:45.588Z,11.35
2022-08-01T00:08:12.933Z,9.20
2022-08-01T00:10:40.631Z,10.00
2022-08-01T00:13:07.959Z,8.20
2022-08-01T00:15:37.931Z,12.18
2022-08-01T00:18:05.563Z,11.93
2022-08-01T00:20:33.067Z,7.82
2022-08-01T00:23:00.325Z,11.77
2022-08-01T00:25:33.501Z,9.95
2022-08-01T00:28:04.125Z,7.15
2022-08-01T00:30:32.667Z,9.32
2022-08-01T00:33:00.152Z,9.90
2022-08-01T00:35:27.701Z,8.02
2022-08-01T00:37:55.442Z,9.80
2022-08-01T00:40:23.312Z,9.68
2022-08-01T00:42:50.928Z,10.80
2022-08-01T00:45:18.748Z,9.05
2022-08-01T00:47:46.212Z,10.85
2022-08-01T00:50:13.758Z,9.25
2022-08-01T00:52:42.237Z,10.43
2022-08-01T00:55:14.884Z,10.60
2022-08-01T00:58:03.363Z,8.40
2022-08-01T01:00:33.730Z,10.90
2022-08-01T01:03:02.984Z,13.07
2022-08-01T01:05:37.075Z,11.55
2022-08-01T01:08:09.885Z,8.35
2022-08-01T01:11:25.219Z,14.73
2022-08-01T01:14:03.289Z,10.98
2022-08-01T01:16:32.052Z,9.40
2022-08-01T01:19:06.638Z,8.65
2022-08-01T01:21:43.108Z,12.90
2022-08-01T01:24:39.984Z,10.05
2022-08-01T01:27:29.321Z,10.30
2022-08-01T01:29:58.958Z,9.02
2022-08-01T01:32:45.018Z,11.95
2022-08-01T01:35:19.230Z,9.88
2022-08-01T01:37:47.804Z,9.82
2022-08-01T01:40:16.650Z,7.22
2022-08-01T01:42:44.745Z,9.45
2022-08-01T01:45:12.700Z,14.20
2022-08-01T01:47:41.299Z,16.13
2022-08-01T01:50:09.952Z,12.98
2022-08-01T01:52:39.397Z,12.88
2022-08-01T01:55:08.463Z,11.85
2022-08-01T01:57:43.180Z,8.40
2022-08-01T02:00:12.489Z,10.75
2022-08-01T02:02:40.383Z,10.63
2022-08-01T02:05:10.089Z,10.52
2022-08-01T02:07:38.853Z,14.65
2022-08-01T02:10:07.185Z,12.00
2022-08-01T02:12:37.217Z,14.15
2022-08-01T02:15:06.587Z,14.93
2022-08-01T02:17:35.030Z,14.10
2022-08-01T02:20:02.556Z,10.32
2022-08-01T02:22:43.557Z,9.68
2022-08-01T02:25:35.841Z,12.35
2022-08-01T02:28:09.400Z,10.10
2022-08-01T02:30:40.176Z,14.77
2022-08-01T02:33:16.021Z,14.52
2022-08-01T02:36:30.625Z,14.20
2022-08-01T02:38:35.316Z,15.98
2022-08-01T02:41:09.769Z,11.90
2022-08-01T02:43:45.151Z,11.00
2022-08-01T02:46:40.300Z,14.70
2022-08-01T02:49:11.718Z,11.40
2022-08-01T02:51:41.011Z,14.57
2022-08-01T02:54:10.084Z,13.73
2022-08-01T02:56:38.166Z,10.70
2022-08-01T02:59:08.948Z,12.32
2022-08-01T03:01:37.520Z,12.23
2022-08-01T03:04:06.434Z,12.57
2022-08-01T03:06:34.525Z,11.80
2022-08-01T03:09:04.403Z,17.75
2022-08-01T03:11:35.324Z,16.00
2022-08-01T03:14:06.391Z,12.95
2022-08-01T03:16:34.942Z,12.40
2022-08-01T03:19:03.065Z,14.18
2022-08-01T03:21:31.834Z,15.10
2022-08-01T03:24:01.189Z,15.20
2022-08-01T03:26:30.190Z,12.55
2022-08-01T03:29:04.025Z,13.27
2022-08-01T03:31:31.741Z,15.25
2022-08-01T03:34:02.872Z,15.02
2022-08-01T03:36:34.887Z,16.92
2022-08-01T03:39:04.881Z,14.25
2022-08-01T03:41:37.252Z,14.23
2022-08-01T03:44:19.560Z,18.00
2022-08-01T03:46:49.301Z,16.50
2022-08-01T03:49:20.058Z,15.05
2022-08-01T03:51:50.585Z,15.82
2022-08-01T03:54:26.774Z,15.23
2022-08-01T03:56:54.236Z,25.00
2022-08-01T03:59:22.048Z,23.35
2022-08-01T04:01:50.107Z,18.63
2022-08-01T04:04:17.475Z,18.75
2022-08-01T04:06:46.072Z,15.50
2022-08-01T04:09:14.009Z,21.65
2022-08-01T04:11:44.948Z,19.73
2022-08-01T04:14:12.773Z,25.13
2022-08-01T04:16:40.555Z,20.50
2022-08-01T04:19:08.803Z,23.95
2022-08-01T04:21:37.094Z,17.15
2022-08-01T04:24:12.165Z,19.48
2022-08-01T04:26:41.190Z,20.35
2022-08-01T04:29:09.844Z,26.40
2022-08-01T04:31:38.251Z,24.80
2022-08-01T04:34:07.250Z,19.02
2022-08-01T04:36:37.543Z,27.00
2022-08-01T04:39:06.251Z,19.67
2022-08-01T04:41:34.951Z,19.27
2022-08-01T04:44:03.983Z,19.23
2022-08-01T04:46:31.576Z,17.00
2022-08-01T04:48:59.866Z,21.67
2022-08-01T04:51:27.615Z,23.95
2022-08-01T04:53:54.919Z,17.88
2022-08-01T04:56:22.754Z,18.30
2022-08-01T04:59:10.166Z,20.65
2022-08-01T05:01:50.698Z,21.05
2022-08-01T05:04:18.090Z,20.13
2022-08-01T05:06:45.549Z,19.23
2022-08-01T05:09:13.143Z,19.25
2022-08-01T05:11:40.620Z,20.48
2022-08-01T05:14:08.020Z,20.55
2022-08-01T05:16:35.616Z,18.75
2022-08-01T05:19:03.866Z,25.00
2022-08-01T05:21:31.435Z,19.77
2022-08-01T05:23:59.626Z,25.35
2022-08-01T05:26:27.050Z,21.42
2022-08-01T05:28:54.439Z,21.85
2022-08-01T05:31:22.165Z,18.10
2022-08-01T05:33:49.570Z,23.85
2022-08-01T05:36:17.255Z,17.65
2022-08-01T05:38:44.808Z,22.00
2022-08-01T05:41:12.634Z,21.50
2022-08-01T05:43:40.064Z,19.75
2022-08-01T05:46:08.087Z,15.25
2022-08-01T05:48:35.514Z,14.30
2022-08-01T05:51:03.678Z,19.73
2022-08-01T05:53:36.120Z,14.98
2022-08-01T05:56:04.053Z,11.20
2022-08-01T05:58:31.811Z,11.13
2022-08-01T06:00:59.838Z,11.07
2022-08-01T06:03:27.361Z,14.15
2022-08-01T06:05:55.206Z,14.88
2022-08-01T06:08:23.013Z,9.55
2022-08-01T06:10:50.865Z,10.98
2022-08-01T06:13:20.690Z,11.50
2022-08-01T06:15:48.267Z,10.52
2022-08-01T06:18:15.946Z,7.07
2022-08-01T06:20:43.784Z,7.57
2022-08-01T06:23:31.121Z,7.32
2022-08-01T06:26:00.738Z,5.43
2022-08-01T06:28:28.132Z,6.22
2022-08-01T06:30:55.842Z,8.65
2022-08-01T06:33:23.698Z,9.38
2022-08-01T06:35:51.175Z,6.93
2022-08-01T06:38:18.747Z,9.55
2022-08-01T06:40:46.717Z,4.20
2022-08-01T06:43:14.292Z,6.03
2022-08-01T06:45:42.077Z,7.38
2022-08-01T06:48:09.877Z,7.70
2022-08-01T06:50:37.889Z,7.15
2022-08-01T06:53:05.686Z,8.73
2022-08-01T06:55:33.519Z,6.80
2022-08-01T06:58:01.104Z,5.13
2022-08-01T07:00:28.725Z,5.70
2022-08-01T07:02:58.670Z,6.05
2022-08-01T07:05:26.147Z,5.80
2022-08-01T07:07:53.800Z,8.88
2022-08-01T07:10:21.718Z,7.00
2022-08-01T07:12:50.155Z,6.43
2022-08-01T07:15:17.557Z,6.47
2022-08-01T07:17:45.273Z,5.82
2022-08-01T07:20:13.996Z,4.85
2022-08-01T07:22:44.294Z,6.50
2022-08-01T07:25:15.740Z,8.05
2022-08-01T07:27:43.290Z,3.88
2022-08-01T07:30:11.182Z,6.43
2022-08-01T07:32:39.031Z,8.15
2022-08-01T07:35:06.921Z,5.47
2022-08-01T07:37:48.768Z,4.25
2022-08-01T07:40:18.922Z,5.78
2022-08-01T07:42:47.474Z,4.28
2022-08-01T07:45:16.276Z,5.22
2022-08-01T07:47:44.748Z,9.15
2022-08-01T07:50:13.861Z,8.00
2022-08-01T07:52:41.362Z,6.03
2022-08-01T07:55:10.281Z,5.90
2022-08-01T07:57:37.808Z,5.13
2022-08-01T08:00:08.631Z,3.28
2022-08-01T08:02:37.374Z,3.53
2022-08-01T08:05:05.739Z,4.88
2022-08-01T08:07:33.654Z,3.40
2022-08-01T08:10:01.704Z,3.25
2022-08-01T08:12:29.933Z,3.78
2022-08-01T08:14:59.591Z,6.75
2022-08-01T08:17:28.093Z,3.95
2022-08-01T08:19:55.522Z,5.43
2022-08-01T08:22:23.053Z,4.25
2022-08-01T08:24:50.590Z,3.53
2022-08-01T08:27:19.243Z,3.97
2022-08-01T08:29:47.615Z,5.03
2022-08-01T08:32:16.574Z,4.45
2022-08-01T08:34:44.938Z,3.80
2022-08-01T08:37:12.665Z,5.90
2022-08-01T08:39:41.905Z,2.63
2022-08-01T08:42:11.505Z,4.85
2022-08-01T08:44:43.788Z,4.38
2022-08-01T08:47:19.863Z,2.15
2022-08-01T08:49:50.050Z,7.35
2022-08-01T08:52:20.368Z,2.45
2022-08-01T08:54:49.230Z,2.75
2022-08-01T08:57:17.051Z,3.80
2022-08-01T08:59:45.048Z,7.65
2022-08-01T09:02:14.094Z,2.85
2022-08-01T09:04:42.849Z,2.58
2022-08-01T09:07:12.140Z,5.93
2022-08-01T09:09:40.917Z,4.43
2022-08-01T09:12:10.593Z,1.70
2022-08-01T09:14:48.863Z,3.60
2022-08-01T09:17:17.696Z,2.58
2022-08-01T09:19:48.907Z,4.18
2022-08-01T09:22:19.704Z,3.30
2022-08-01T09:25:00.975Z,3.80
2022-08-01T09:27:28.568Z,3.70
2022-08-01T09:30:17.156Z,1.58
2022-08-01T09:33:25.781Z,5.97
2022-08-01T09:35:58.250Z,5.07
2022-08-01T09:38:30.577Z,8.55
2022-08-01T09:41:00.249Z,3.08
2022-08-01T09:43:31.924Z,2.30
2022-08-01T09:46:01.248Z,4.57
2022-08-01T09:48:29.519Z,4.65
2022-08-01T09:51:04.983Z,5.10
2022-08-01T09:53:51.136Z,3.88
2022-08-01T09:56:22.544Z,3.42
2022-08-01T09:58:58.453Z,3.47
2022-08-01T10:01:36.910Z,3.33
2022-08-01T10:04:11.553Z,1.83
2022-08-01T10:06:41.786Z,4.28
2022-08-01T10:09:10.203Z,1.95
2022-08-01T10:11:41.642Z,3.33
2022-08-01T10:14:09.944Z,3.33
2022-08-01T10:16:38.677Z,6.88
2022-08-01T10:19:14.894Z,5.05
2022-08-01T10:21:56.324Z,2.85
2022-08-01T10:24:28.904Z,9.35
2022-08-01T10:27:06.032Z,7.95
2022-08-01T10:29:46.023Z,6.05
2022-08-01T10:32:15.428Z,6.85
2022-08-01T10:34:45.037Z,3.30
2022-08-01T10:37:14.361Z,3.15
2022-08-01T10:39:44.035Z,3.55
2022-08-01T10:42:15.566Z,5.93
2022-08-01T10:44:47.221Z,6.78
2022-08-01T10:47:26.999Z,3.78
2022-08-01T10:50:43.588Z,2.97
2022-08-01T10:53:23.989Z,4.75
2022-08-01T10:55:59.356Z,4.28
2022-08-01T10:58:42.123Z,5.97
2022-08-01T11:01:31.393Z,3.05
2022-08-01T11:04:02.466Z,2.33
2022-08-01T11:06:34.322Z,4.70
2022-08-01T11:09:16.186Z,4.53
2022-08-01T11:12:06.331Z,4.22
2022-08-01T11:14:55.175Z,3.40
2022-08-01T11:17:54.906Z,2.42
2022-08-01T11:21:57.066Z,10.80
2022-08-01T11:23:53.056Z,2.22
2022-08-01T11:26:28.498Z,3.72
2022-08-01T11:29:20.924Z,5.47
2022-08-01T11:31:49.893Z,3.53
2022-08-01T11:34:17.502Z,3.50
2022-08-01T11:37:00.418Z,2.60
2022-08-01T11:39:29.515Z,6.05
2022-08-01T11:42:19.920Z,1.65
2022-08-01T11:44:52.726Z,7.57
2022-08-01T11:47:47.093Z,4.85
2022-08-01T11:50:41.166Z,2.67
2022-08-01T11:53:09.403Z,2.28
2022-08-01T11:55:51.285Z,7.97
2022-08-01T11:58:27.533Z,2.00
2022-08-01T12:01:03.745Z,5.47
2022-08-01T12:03:34.454Z,6.13
2022-08-01T12:06:03.104Z,3.80
2022-08-01T12:08:37.670Z,4.22
2022-08-01T12:11:06.860Z,3.05
2022-08-01T12:13:42.956Z,4.28
2022-08-01T12:16:11.938Z,5.38
2022-08-01T12:18:41.960Z,2.50
2022-08-01T12:21:09.518Z,6.13
2022-08-01T12:23:37.135Z,3.67
2022-08-01T12:26:07.694Z,2.25
2022-08-01T12:28:41.065Z,2.83
2022-08-01T12:31:08.938Z,5.72
2022-08-01T12:33:36.580Z,4.43
2022-08-01T12:36:04.129Z,2.78
2022-08-01T12:38:33.954Z,4.60
2022-08-01T12:41:01.660Z,2.97
2022-08-01T12:43:33.043Z,5.10
2022-08-01T12:46:02.201Z,6.63
2022-08-01T12:48:32.141Z,6.75
2022-08-01T12:51:02.374Z,2.50
2022-08-01T12:53:40.713Z,6.35
2022-08-01T12:56:11.831Z,5.03
2022-08-01T12:58:40.502Z,2.63
2022-08-01T13:01:12.614Z,2.05
2022-08-01T13:06:16.638Z,4.93
2022-08-01T13:08:46.161Z,3.22
2022-08-01T13:11:15.953Z,3.70
2022-08-01T13:13:48.998Z,2.63
2022-08-01T13:19:07.187Z,5.15
2022-08-01T13:21:53.369Z,2.92
2022-08-01T13:24:27.446Z,4.30
2022-08-01T13:27:05.057Z,4.80
2022-08-01T13:29:44.055Z,7.70
2022-08-01T13:32:27.922Z,4.95
2022-08-01T13:35:09.334Z,5.82
2022-08-01T13:37:38.570Z,5.15
2022-08-01T13:40:11.429Z,3.95
2022-08-01T13:42:40.105Z,5.38
2022-08-01T14:41:00.421Z,5.25
2022-08-01T14:43:33.256Z,4.35
2022-08-01T14:46:05.339Z,7.40
2022-08-01T14:48:33.276Z,5.50
2022-08-01T14:51:04.192Z,4.22
2022-08-01T14:53:34.427Z,5.75
2022-08-01T14:56:07.296Z,6.57
2022-08-01T14:58:34.732Z,4.85
2022-08-01T15:01:02.526Z,5.07
2022-08-01T15:03:30.307Z,4.32
2022-08-01T15:05:57.753Z,6.55
2022-08-01T15:08:25.414Z,7.35
2022-08-01T15:10:53.479Z,6.57
2022-08-01T15:13:20.900Z,4.35
2022-08-01T15:15:48.542Z,7.45
2022-08-01T15:18:16.410Z,4.35
2022-08-01T15:20:44.499Z,7.25
2022-08-01T15:23:12.314Z,6.05
2022-08-01T15:25:41.235Z,5.05
2022-08-01T15:28:11.475Z,6.45
2022-08-01T15:30:40.030Z,5.82
2022-08-01T15:33:07.763Z,3.92
2022-08-01T15:35:35.231Z,5.50
2022-08-01T15:38:02.641Z,4.75
2022-08-01T15:40:30.270Z,6.70
2022-08-01T15:42:57.619Z,5.85
2022-08-01T15:45:46.438Z,6.75
2022-08-01T15:48:12.940Z,7.93
2022-08-01T15:50:40.439Z,4.50
2022-08-01T15:53:07.928Z,7.90
2022-08-01T15:55:41.737Z,6.50
2022-08-01T15:58:14.139Z,6.85
2022-08-01T16:00:41.820Z,5.72
2022-08-01T16:03:10.673Z,5.05
2022-08-01T16:05:43.409Z,6.00
2022-08-01T16:08:13.022Z,7.22
2022-08-01T16:10:40.733Z,6.70
2022-08-01T16:13:08.407Z,7.93
2022-08-01T16:15:37.955Z,6.13
2022-08-01T16:18:07.086Z,6.50
2022-08-01T16:20:35.371Z,5.68
2022-08-01T16:23:03.309Z,9.63
2022-08-01T16:25:30.872Z,4.00
2022-08-01T16:27:58.357Z,4.22
2022-08-01T16:30:26.182Z,5.35
2022-08-01T16:32:59.007Z,4.50
2022-08-01T16:35:27.604Z,9.43
2022-08-01T16:38:04.950Z,3.72
2022-08-01T16:40:47.216Z,4.03
2022-08-01T16:43:16.158Z,7.10
2022-08-01T16:45:44.474Z,4.38
2022-08-01T16:48:12.900Z,4.55
2022-08-01T16:50:40.720Z,8.88
2022-08-01T16:53:08.457Z,4.88
2022-08-01T16:55:49.892Z,3.58
2022-08-01T16:58:27.717Z,5.30
2022-08-01T17:00:57.759Z,6.25
2022-08-01T17:03:51.435Z,4.65
2022-08-01T17:06:22.198Z,5.00
2022-08-01T17:08:50.422Z,7.22
2022-08-01T17:11:17.777Z,8.13
2022-08-01T17:13:45.571Z,4.25
2022-08-01T17:16:13.439Z,13.10
2022-08-01T17:18:41.056Z,7.35
2022-08-01T17:21:08.466Z,17.17
2022-08-01T17:23:36.157Z,11.00
2022-08-01T17:26:04.006Z,10.15
2022-08-01T17:28:31.460Z,9.00
2022-08-01T17:30:59.630Z,9.95
2022-08-01T17:33:36.554Z,7.53
2022-08-01T17:36:15.207Z,9.20
2022-08-01T17:38:42.954Z,10.75
2022-08-01T17:41:10.408Z,7.70
2022-08-01T17:43:38.083Z,6.45
2022-08-01T17:46:05.539Z,6.20
2022-08-01T17:48:32.968Z,11.20
2022-08-01T17:51:00.789Z,6.57
2022-08-01T17:53:28.497Z,6.57
2022-08-01T17:55:58.611Z,11.35
2022-08-01T17:58:50.466Z,7.63
2022-08-01T18:01:17.711Z,6.05
2022-08-01T18:03:45.856Z,7.53
2022-08-01T18:06:15.906Z,8.95
2022-08-01T18:08:45.842Z,6.57
2022-08-01T18:11:17.907Z,7.53
2022-08-01T18:13:55.711Z,6.05
2022-08-01T19:17:04.173Z,13.48
2022-08-01T19:51:07.736Z,12.15
2022-08-01T19:53:37.858Z,9.50
2022-08-01T19:56:10.349Z,12.55
2022-08-01T19:58:45.558Z,9.80
2022-08-01T20:01:16.989Z,19.92
2022-08-01T20:03:47.997Z,12.20
2022-08-01T20:06:16.324Z,9.50
2022-08-01T20:08:45.195Z,14.45
2022-08-01T20:11:15.975Z,11.98
2022-08-01T20:13:48.968Z,8.57
2022-08-01T20:16:17.795Z,10.07
2022-08-01T20:18:45.680Z,12.20
2022-08-01T20:21:14.045Z,10.27
2022-08-01T20:23:44.523Z,16.75
2022-08-01T20:26:15.054Z,23.83
2022-08-01T20:28:47.382Z,34.35
2022-08-01T20:31:16.772Z,25.40
2022-08-01T20:33:47.914Z,19.92
2022-08-01T20:36:24.955Z,14.65
2022-08-01T20:38:56.906Z,13.45
2022-08-01T20:41:26.180Z,21.20
2022-08-01T20:44:00.089Z,15.60
2022-08-01T20:46:31.746Z,13.43
2022-08-01T20:49:00.153Z,13.80
2022-08-01T20:51:28.845Z,18.17
2022-08-01T20:53:56.925Z,17.92
2022-08-01T20:56:46.208Z,12.30
2022-08-01T20:59:39.633Z,11.95
2022-08-01T21:02:49.454Z,10.90
2022-08-01T21:07:54.555Z,17.20
2022-08-01T21:10:26.617Z,13.02
2022-08-01T21:13:10.720Z,13.10
2022-08-01T21:16:23.270Z,15.98
2022-08-01T21:18:58.262Z,14.13
2022-08-01T21:21:35.940Z,12.98
2022-08-01T21:24:11.006Z,13.98
2022-08-01T21:26:39.573Z,12.13
2022-08-01T21:29:07.967Z,17.25
2022-08-01T21:31:40.898Z,12.52
2022-08-01T21:34:10.221Z,15.45
2022-08-01T21:36:37.875Z,13.20
2022-08-01T21:39:07.934Z,15.85
2022-08-01T21:42:05.289Z,12.18
2022-08-01T21:44:28.710Z,12.10
2022-08-01T21:47:00.644Z,12.27
2022-08-01T21:49:28.452Z,13.57
2022-08-01T21:52:21.360Z,15.60
2022-08-01T21:57:45.015Z,14.00
2022-08-01T22:04:10.699Z,14.05
2022-08-01T22:06:46.022Z,10.82
2022-08-01T22:09:14.106Z,12.88
2022-08-01T22:11:59.339Z,15.30
2022-08-01T22:14:30.474Z,10.55
2022-08-01T22:16:59.462Z,18.15
2022-08-01T22:19:31.363Z,10.25
2022-08-01T22:22:44.198Z,12.40
2022-08-01T22:25:02.326Z,11.15
2022-08-01T22:28:08.982Z,14.20
2022-08-01T22:30:19.381Z,14.55
2022-08-01T22:33:07.124Z,11.32
2022-08-01T22:35:36.349Z,11.05
2022-08-01T22:38:09.759Z,13.07
2022-08-01T22:40:40.955Z,11.15
2022-08-01T22:43:35.953Z,16.60
2022-08-01T22:46:24.571Z,13.10
2022-08-01T22:49:01.843Z,16.23
2022-08-01T22:51:55.269Z,12.27
2022-08-01T22:54:33.856Z,16.40
2022-08-01T22:57:07.214Z,13.05
2022-08-01T22:59:47.345Z,12.23
2022-08-01T23:02:16.862Z,12.05
2022-08-01T23:04:49.771Z,13.57
2022-08-01T23:07:28.651Z,14.60
2022-08-01T23:09:57.338Z,13.48
2022-08-01T23:12:26.239Z,13.48
2022-08-01T23:14:58.296Z,12.00
2022-08-01T23:17:29.437Z,12.60
2022-08-01T23:20:02.455Z,13.45
2022-08-01T23:22:33.199Z,15.38
2022-08-01T23:25:04.257Z,14.00
2022-08-01T23:27:51.776Z,18.98
2022-08-01T23:30:31.138Z,12.90
2022-08-01T23:32:59.391Z,15.18
2022-08-01T23:35:27.920Z,15.02
2022-08-01T23:38:02.453Z,13.50
2022-08-01T23:40:34.830Z,13.55
2022-08-01T23:43:03.639Z,17.75
2022-08-01T23:46:02.372Z,15.85
2022-08-01T23:48:19.799Z,12.52
2022-08-01T23:50:47.443Z,12.13
2022-08-01T23:53:15.049Z,15.32
2022-08-01T23:55:44.535Z,12.32
2022-08-01T23:58:12.460Z,16.00
